createdAt,value
2022-12-18T00:03:21.032Z,28.98
2022-12-18T00:08:23.059Z,26.65
2022-12-18T00:13:25.172Z,25.92
2022-12-18T00:18:29.868Z,26.24
2022-12-18T00:23:32.836Z,26.84
2022-12-18T00:28:35.048Z,26.26
2022-12-18T00:33:37.950Z,28.48
2022-12-18T00:38:40.073Z,29.77
2022-12-18T00:43:42.555Z,30.04
2022-12-18T00:48:44.746Z,31.73
2022-12-18T00:53:47.061Z,29.19
2022-12-18T00:58:49.672Z,29.06
2022-12-18T01:03:51.683Z,29.16
2022-12-18T01:08:56.099Z,27.68
2022-12-18T01:14:00.735Z,29.57
2022-12-18T01:19:02.612Z,27.60
2022-12-18T01:24:05.253Z,26.74
2022-12-18T01:29:07.118Z,24.35
2022-12-18T01:34:10.214Z,23.98
2022-12-18T01:39:14.422Z,24.95
2022-12-18T01:44:56.478Z,26.83
2022-12-18T01:50:01.781Z,28.28
2022-12-18T01:55:06.021Z,29.98
2022-12-18T02:00:18.112Z,28.05
2022-12-18T02:05:49.544Z,28.07
2022-12-18T02:11:05.353Z,26.07
2022-12-18T02:16:34.014Z,29.81
2022-12-18T02:21:51.227Z,27.81
2022-12-18T02:27:00.302Z,25.85
2022-12-18T02:32:09.256Z,26.84
2022-12-18T02:37:16.823Z,29.61
2022-12-18T02:42:19.956Z,29.15
2022-12-18T02:47:27.701Z,29.60
2022-12-18T02:52:40.217Z,26.62
2022-12-18T02:57:54.531Z,25.88
2022-12-18T03:03:07.734Z,26.19
2022-12-18T03:08:14.077Z,24.19
2022-12-18T03:13:25.526Z,23.83
2022-12-18T03:18:34.253Z,23.63
2022-12-18T03:23:44.049Z,24.06
2022-12-18T03:28:55.469Z,22.92
2022-12-18T03:34:02.058Z,20.03
2022-12-18T03:39:13.307Z,25.67
2022-12-18T03:44:36.397Z,25.90
2022-12-18T03:49:44.978Z,23.75
2022-12-18T03:54:48.263Z,24.78
2022-12-18T03:59:58.417Z,24.53
2022-12-18T04:05:07.682Z,24.12
2022-12-18T04:10:13.795Z,22.79
2022-12-18T04:15:16.731Z,23.40
2022-12-18T04:20:19.827Z,25.34
2022-12-18T04:25:23.178Z,24.02
2022-12-18T04:30:45.366Z,25.27
2022-12-18T04:35:49.324Z,25.30
2022-12-18T04:40:51.290Z,23.87
2022-12-18T04:46:07.674Z,25.06
2022-12-18T04:51:09.696Z,24.95
2022-12-18T04:56:15.559Z,25.69
2022-12-18T05:01:19.060Z,25.17
2022-12-18T05:06:20.872Z,28.19
2022-12-18T05:11:23.060Z,28.00
2022-12-18T05:16:25.005Z,28.52
2022-12-18T05:21:26.996Z,29.04
2022-12-18T05:26:28.826Z,29.67
2022-12-18T05:31:34.545Z,31.54
2022-12-18T05:36:39.507Z,33.48
2022-12-18T05:41:41.395Z,30.58
2022-12-18T05:46:43.504Z,29.21
2022-12-18T05:51:46.124Z,26.62
2022-12-18T05:56:48.855Z,25.82
2022-12-18T06:01:51.477Z,27.49
2022-12-18T06:06:53.368Z,25.72
2022-12-18T06:11:55.451Z,25.75
2022-12-18T06:16:57.367Z,23.36
2022-12-18T06:21:59.913Z,24.79
2022-12-18T06:27:01.736Z,24.78
2022-12-18T06:32:03.823Z,26.51
2022-12-18T06:37:05.649Z,28.60
2022-12-18T06:42:07.532Z,30.13
2022-12-18T06:47:09.470Z,28.07
2022-12-18T06:52:11.307Z,32.28
2022-12-18T06:57:13.351Z,32.38
2022-12-18T07:02:15.519Z,28.11
2022-12-18T07:07:17.664Z,28.24
2022-12-18T07:12:19.787Z,29.41
2022-12-18T07:17:21.958Z,30.93
2022-12-18T07:22:23.992Z,28.44
2022-12-18T07:27:25.892Z,28.20
2022-12-18T07:32:28.040Z,29.14
2022-12-18T07:37:29.931Z,25.35
2022-12-18T07:42:31.773Z,24.48
2022-12-18T07:47:36.717Z,26.11
2022-12-18T07:52:38.638Z,24.76
2022-12-18T07:58:00.866Z,20.75
2022-12-18T08:03:03.150Z,18.53
2022-12-18T08:08:05.382Z,23.17
2022-12-18T08:13:07.261Z,18.54
2022-12-18T08:18:12.775Z,19.70
2022-12-18T08:23:16.208Z,20.03
2022-12-18T08:28:18.266Z,18.34
2022-12-18T08:33:20.446Z,19.19
2022-12-18T08:38:23.813Z,20.09
2022-12-18T08:43:44.210Z,19.98
2022-12-18T08:48:46.617Z,18.28
2022-12-18T08:53:48.515Z,20.50
2022-12-18T08:58:54.158Z,19.67
2022-12-18T09:03:56.222Z,21.40
2022-12-18T09:08:58.467Z,16.06
2022-12-18T09:14:02.214Z,18.31
2022-12-18T09:19:05.440Z,15.23
2022-12-18T09:24:09.136Z,10.24
2022-12-18T09:29:11.124Z,14.78
2022-12-18T09:34:12.980Z,13.04
2022-12-18T09:39:15.187Z,13.04
2022-12-18T09:44:25.940Z,12.81
2022-12-18T09:49:31.662Z,12.23
2022-12-18T09:54:39.400Z,11.41
2022-12-18T09:59:44.960Z,9.71
2022-12-18T10:05:12.034Z,8.69
2022-12-18T10:10:25.921Z,9.79
2022-12-18T10:15:39.940Z,8.42
2022-12-18T10:20:57.876Z,7.52
2022-12-18T10:26:08.162Z,8.40
2022-12-18T10:31:18.143Z,10.83
2022-12-18T10:36:20.932Z,10.17
2022-12-18T10:41:26.628Z,11.41
2022-12-18T10:46:29.359Z,9.84
2022-12-18T10:51:36.776Z,10.02
2022-12-18T10:56:39.198Z,5.98
2022-12-18T11:01:51.860Z,6.66
2022-12-18T11:06:56.479Z,7.54
2022-12-18T11:12:01.348Z,3.67
2022-12-18T11:17:24.872Z,1.90
2022-12-18T11:22:28.987Z,0.44
2022-12-18T11:27:31.021Z,7.82
2022-12-18T11:32:39.604Z,4.33
2022-12-18T11:37:47.184Z,2.49
2022-12-18T11:42:59.696Z,-0.54
2022-12-18T11:48:22.056Z,0.32
2022-12-18T11:53:26.575Z,-0.14
2022-12-18T11:58:46.778Z,-0.93
2022-12-18T12:04:26.368Z,3.37
2022-12-18T12:09:34.088Z,3.74
2022-12-18T12:14:55.489Z,-0.33
2022-12-18T12:20:13.983Z,0.23
2022-12-18T12:25:28.101Z,0.16
2022-12-18T12:31:05.317Z,3.32
2022-12-18T12:36:35.556Z,3.51
2022-12-18T12:42:01.552Z,2.38
2022-12-18T12:47:31.154Z,2.64
2022-12-18T12:52:41.977Z,4.62
2022-12-18T12:57:54.951Z,1.35
2022-12-18T13:03:02.926Z,2.18
2022-12-18T13:08:22.427Z,1.36
2022-12-18T13:13:25.915Z,4.67
2022-12-18T13:18:28.889Z,0.79
2022-12-18T13:23:41.086Z,2.82
2022-12-18T13:28:46.387Z,7.06
2022-12-18T13:39:26.684Z,7.47
2022-12-18T13:44:40.913Z,3.69
2022-12-18T13:49:44.863Z,8.18
2022-12-18T13:54:50.237Z,8.24
2022-12-18T13:59:52.997Z,7.65
2022-12-18T14:04:56.504Z,10.51
2022-12-18T14:10:12.092Z,11.44
2022-12-18T14:15:27.104Z,10.46
2022-12-18T14:20:32.204Z,9.80
2022-12-18T14:25:34.187Z,9.51
2022-12-18T14:30:39.138Z,13.82
2022-12-18T14:35:52.707Z,9.52
2022-12-18T14:41:03.327Z,10.19
2022-12-18T14:46:28.388Z,11.16
2022-12-18T14:51:35.391Z,12.10
2022-12-18T14:56:44.201Z,10.57
2022-12-18T15:01:59.280Z,7.62
2022-12-18T15:07:13.524Z,8.56
2022-12-18T15:12:30.188Z,8.89
2022-12-18T15:17:32.306Z,9.63
2022-12-18T15:22:37.051Z,12.88
2022-12-18T15:27:39.074Z,10.43
2022-12-18T15:32:44.078Z,7.34
2022-12-18T15:37:46.211Z,10.48
2022-12-18T15:43:08.019Z,12.01
2022-12-18T15:48:21.746Z,9.91
2022-12-18T15:53:24.668Z,8.85
2022-12-18T15:58:26.789Z,11.89
2022-12-18T16:03:28.795Z,9.93
2022-12-18T16:08:31.182Z,11.86
2022-12-18T16:13:33.213Z,12.99
2022-12-18T16:18:35.437Z,11.81
2022-12-18T16:23:37.523Z,12.85
2022-12-18T16:28:45.169Z,12.39
2022-12-18T16:33:50.026Z,13.79
2022-12-18T16:38:51.910Z,11.80
2022-12-18T16:43:55.115Z,10.70
2022-12-18T16:49:01.479Z,10.71
2022-12-18T16:54:07.802Z,13.08
2022-12-18T16:59:13.409Z,13.35
2022-12-18T17:04:17.166Z,10.76
2022-12-18T17:09:23.775Z,11.31
2022-12-18T17:14:25.931Z,11.95
2022-12-18T17:19:28.421Z,12.30
2022-12-18T17:24:34.740Z,14.95
2022-12-18T17:29:41.158Z,14.93
2022-12-18T17:34:47.248Z,13.58
2022-12-18T17:39:50.052Z,13.80
2022-12-18T17:44:52.852Z,14.35
2022-12-18T17:49:55.054Z,11.65
2022-12-18T17:54:57.747Z,13.05
2022-12-18T17:59:59.597Z,12.22
2022-12-18T18:05:01.411Z,10.94
2022-12-18T18:10:03.771Z,11.24
2022-12-18T18:15:06.366Z,12.72
2022-12-18T18:20:09.063Z,11.99
2022-12-18T18:25:11.373Z,12.40
2022-12-18T18:30:13.696Z,12.88
2022-12-18T18:35:30.933Z,9.58
2022-12-18T18:40:37.595Z,13.42
2022-12-18T18:45:39.492Z,13.23
2022-12-18T18:50:45.686Z,12.79
2022-12-18T18:56:03.978Z,12.15
2022-12-18T19:01:18.018Z,11.68
2022-12-18T19:06:27.335Z,14.29
2022-12-18T19:11:49.072Z,14.71
2022-12-18T19:16:51.412Z,12.80
2022-12-18T19:21:53.476Z,12.97
2022-12-18T19:26:58.182Z,13.19
2022-12-18T19:32:00.460Z,12.87
2022-12-18T19:37:02.599Z,14.05
2022-12-18T19:42:04.493Z,12.17
2022-12-18T19:47:06.437Z,13.82
2022-12-18T19:52:08.308Z,13.63
2022-12-18T19:57:11.835Z,13.97
2022-12-18T20:02:14.090Z,14.13
2022-12-18T20:07:16.158Z,14.62
2022-12-18T20:12:18.065Z,15.41
2022-12-18T20:17:20.245Z,14.29
2022-12-18T20:22:22.828Z,16.52
2022-12-18T20:27:25.040Z,16.23
2022-12-18T20:32:26.927Z,15.45
2022-12-18T20:37:31.487Z,15.63
2022-12-18T20:42:35.167Z,15.32
2022-12-18T20:47:37.001Z,14.61
2022-12-18T20:52:38.946Z,13.42
2022-12-18T20:57:40.829Z,14.90
2022-12-18T21:02:42.768Z,13.74
2022-12-18T21:07:45.039Z,14.84
2022-12-18T21:12:58.728Z,14.07
2022-12-18T21:18:02.199Z,14.45
2022-12-18T21:23:16.448Z,14.06
2022-12-18T21:28:18.860Z,14.11
2022-12-18T21:33:21.059Z,14.77
2022-12-18T21:38:22.919Z,14.72
2022-12-18T21:43:43.195Z,14.61
2022-12-18T21:48:45.140Z,12.86
2022-12-18T21:53:47.271Z,13.12
2022-12-18T21:58:56.970Z,15.17
2022-12-18T22:03:59.510Z,14.05
2022-12-18T22:09:01.569Z,13.99
2022-12-18T22:14:03.571Z,13.74
2022-12-18T22:19:06.006Z,11.59
2022-12-18T22:24:13.117Z,11.74
2022-12-18T22:29:38.512Z,13.68
2022-12-18T22:34:40.424Z,13.00
2022-12-18T22:39:42.378Z,13.23
2022-12-18T22:44:45.496Z,14.42
2022-12-18T22:49:47.443Z,15.31
2022-12-18T22:54:49.393Z,14.42
2022-12-18T22:59:51.643Z,14.55
2022-12-18T23:04:53.533Z,15.31
2022-12-18T23:10:00.735Z,16.10
2022-12-18T23:15:04.670Z,15.03
2022-12-18T23:20:06.992Z,15.58
2022-12-18T23:25:10.294Z,13.23
2022-12-18T23:30:12.600Z,14.74
2022-12-18T23:35:15.812Z,13.17
2022-12-18T23:40:17.834Z,12.77
2022-12-18T23:45:19.701Z,14.13
2022-12-18T23:50:24.524Z,13.93
2022-12-18T23:55:32.009Z,12.90
